Time;durP1;ratioP1;P1;durP2;ratioP2;P2;SDS_P1;SDS_P2;PMS_P1;PMS_P2;Temp;Humidity;BMP_temperature;BMP_pressure;BME280_temperature;BME280_humidity;BME280_pressure;Samples;Min_cycle;Max_cycle;Signal;HPM_P1;HPM_P2
2021/12/30 00:01:28;;;;;;;37.55;5.55;;;;;;;-145.00;100.00;60578.66;5074830;28;20404;-50
2021/12/30 00:03:57;;;;;;;37.50;5.72;;;;;;;-145.00;100.00;60578.66;5074479;28;20056;-50
2021/12/30 00:06:25;;;;;;;41.33;5.85;;;;;;;-145.00;100.00;60578.66;5074477;28;20052;-52
2021/12/30 00:08:55;;;;;;;41.75;5.93;;;;;;;-145.00;100.00;60578.66;5073904;28;20419;-52
2021/12/30 00:11:24;;;;;;;41.83;5.03;;;;;;;-145.00;100.00;60578.66;5074659;28;20070;-50
2021/12/30 00:13:53;;;;;;;46.45;6.85;;;;;;;-145.00;100.00;60578.66;5073215;28;20063;-52
2021/12/30 00:16:21;;;;;;;31.00;5.50;;;;;;;-145.00;100.00;60578.66;5073500;28;20056;-52
2021/12/30 00:18:49;;;;;;;34.45;5.80;;;;;;;-145.00;100.00;60578.66;5076889;28;20068;-50
2021/12/30 00:21:20;;;;;;;43.15;6.47;;;;;;;-145.00;100.00;60578.66;5077800;28;20416;-52
2021/12/30 00:23:48;;;;;;;39.42;5.70;;;;;;;-145.00;100.00;60578.66;5077997;28;20404;-52
2021/12/30 00:26:17;;;;;;;40.67;6.07;;;;;;;-145.00;100.00;60578.66;5077386;28;20060;-51
2021/12/30 00:28:46;;;;;;;38.63;5.38;;;;;;;-145.00;100.00;60578.66;5078131;28;20052;-51
2021/12/30 00:31:15;;;;;;;41.65;5.80;;;;;;;-145.00;100.00;60578.66;5077244;28;20071;-49
2021/12/30 00:33:44;;;;;;;40.80;7.07;;;;;;;-145.00;100.00;60578.66;5077543;28;20135;-52
2021/12/30 00:36:13;;;;;;;40.10;6.47;;;;;;;-145.00;100.00;60578.66;5077471;28;20127;-52
2021/12/30 00:38:44;;;;;;;34.92;4.43;;;;;;;-145.00;100.00;60578.66;5076796;28;20408;-50
2021/12/30 00:41:12;;;;;;;31.20;4.05;;;;;;;-145.00;100.00;60578.66;5077734;28;20061;-51
2021/12/30 00:43:41;;;;;;;45.45;4.80;;;;;;;-145.00;100.00;60578.66;5076504;28;20530;-51
2021/12/30 00:46:10;;;;;;;33.90;5.93;;;;;;;-145.00;100.00;60578.66;5077128;28;20061;-49
2021/12/30 00:48:40;;;;;;;33.20;4.60;;;;;;;-145.00;100.00;60578.66;5076633;28;20061;-50
2021/12/30 00:51:08;;;;;;;38.00;5.18;;;;;;;-145.00;100.00;60578.66;5076606;28;20504;-50
2021/12/30 00:53:37;;;;;;;37.03;4.72;;;;;;;-145.00;100.00;60578.66;5076338;28;20394;-51
2021/12/30 00:56:05;;;;;;;39.83;6.57;;;;;;;-145.00;100.00;60578.66;5076541;28;20400;-52
2021/12/30 00:58:34;;;;;;;28.85;4.85;;;;;;;-145.00;100.00;60578.66;5076460;28;20059;-51
2021/12/30 01:01:04;;;;;;;22.65;4.30;;;;;;;-145.00;100.00;60578.66;5076438;28;20504;-50
2021/12/30 01:03:34;;;;;;;28.23;4.70;;;;;;;-145.00;100.00;60578.66;5077562;28;20091;-52
2021/12/30 01:06:03;;;;;;;36.40;6.43;;;;;;;-145.00;100.00;60578.66;5076603;28;20062;-51
2021/12/30 01:08:31;;;;;;;42.50;5.82;;;;;;;-145.00;100.00;60578.66;5076276;28;20064;-50
2021/12/30 01:11:04;;;;;;;37.05;4.93;;;;;;;-145.00;100.00;60578.66;5076222;28;20053;-52
2021/12/30 01:13:37;;;;;;;32.42;5.55;;;;;;;-145.00;100.00;60578.66;5077346;28;20057;-51
2021/12/30 01:16:15;;;;;;;25.92;3.70;;;;;;;-145.00;100.00;60578.66;5076131;28;20063;-49
2021/12/30 01:18:59;;;;;;;37.08;5.85;;;;;;;-145.00;100.00;60578.66;5076253;28;20056;-51
2021/12/30 01:21:29;;;;;;;33.90;5.75;;;;;;;-145.00;100.00;60578.66;5075805;28;20512;-50
2021/12/30 01:23:58;;;;;;;42.78;5.68;;;;;;;-145.00;100.00;60578.66;5076415;28;20052;-52
2021/12/30 01:26:27;;;;;;;35.75;5.13;;;;;;;-145.00;100.00;60578.66;5076251;28;20500;-50
2021/12/30 01:28:56;;;;;;;35.65;4.63;;;;;;;-145.00;100.00;60578.66;5075807;28;20059;-51
2021/12/30 01:31:24;;;;;;;35.03;4.95;;;;;;;-145.00;100.00;60578.66;5076123;28;20064;-51
2021/12/30 01:34:14;;;;;;;42.25;5.28;;;;;;;-145.00;100.00;60578.66;5076368;28;20403;-51
2021/12/30 01:36:42;;;;;;;43.60;5.32;;;;;;;-145.00;100.00;60578.66;5076305;28;20087;-50
2021/12/30 01:39:11;;;;;;;31.55;4.13;;;;;;;-145.00;100.00;60578.66;5075672;28;20508;-51
2021/12/30 01:41:40;;;;;;;38.53;6.30;;;;;;;-145.00;100.00;60578.66;5075606;28;20431;-51
2021/12/30 01:44:08;;;;;;;26.77;5.03;;;;;;;-145.00;100.00;60578.66;5075655;28;20056;-52
2021/12/30 01:46:38;;;;;;;36.42;4.82;;;;;;;-145.00;100.00;60578.66;5075791;28;20408;-50
2021/12/30 01:49:06;;;;;;;31.42;4.43;;;;;;;-145.00;100.00;60578.66;5076325;28;20060;-49
2021/12/30 01:51:36;;;;;;;38.58;4.80;;;;;;;-145.00;100.00;60578.66;5075730;28;20052;-51
2021/12/30 01:54:04;;;;;;;37.90;5.20;;;;;;;-145.00;100.00;60578.66;5076038;28;20057;-50
2021/12/30 01:56:33;;;;;;;29.10;4.55;;;;;;;-145.00;100.00;60578.66;5075596;28;20412;-51
2021/12/30 01:59:02;;;;;;;30.95;4.20;;;;;;;-145.00;100.00;60578.66;5075621;28;20052;-52
2021/12/30 02:01:31;;;;;;;27.70;4.20;;;;;;;-145.00;100.00;60578.66;5075542;28;20057;-52
2021/12/30 02:04:00;;;;;;;26.60;4.63;;;;;;;-145.00;100.00;60578.66;5075814;28;20131;-50
2021/12/30 02:06:29;;;;;;;33.28;4.60;;;;;;;-145.00;100.00;60578.66;5075437;28;20056;-51
2021/12/30 02:09:00;;;;;;;29.90;4.00;;;;;;;-145.00;100.00;60578.66;5075383;28;20057;-50
2021/12/30 02:11:28;;;;;;;24.20;3.87;;;;;;;-145.00;100.00;60578.66;5074842;28;20053;-51
2021/12/30 02:13:57;;;;;;;28.55;4.57;;;;;;;-145.00;100.00;60578.66;5075943;28;20063;-52
2021/12/30 02:16:25;;;;;;;33.15;5.20;;;;;;;-145.00;100.00;60578.66;5075128;28;20057;-49
2021/12/30 02:18:54;;;;;;;24.20;4.00;;;;;;;-145.00;100.00;60578.66;5075527;28;20096;-50
2021/12/30 02:21:23;;;;;;;31.90;4.53;;;;;;;-145.00;100.00;60578.66;5075692;28;20048;-50
2021/12/30 02:23:52;;;;;;;35.33;6.20;;;;;;;-145.00;100.00;60578.66;5076029;28;20400;-51
2021/12/30 02:26:20;;;;;;;34.72;5.45;;;;;;;-145.00;100.00;60578.66;5075064;28;20064;-51
2021/12/30 02:28:50;;;;;;;34.40;4.55;;;;;;;-145.00;100.00;60578.66;5074710;28;20159;-52
2021/12/30 02:31:21;;;;;;;35.17;3.70;;;;;;;-145.00;100.00;60578.66;5075519;28;20063;-51
2021/12/30 02:33:49;;;;;;;24.08;3.85;;;;;;;-145.00;100.00;60578.66;5074685;28;20053;-52
2021/12/30 02:36:22;;;;;;;31.52;4.40;;;;;;;-145.00;100.00;60578.66;5075375;28;20480;-49
2021/12/30 02:38:52;;;;;;;33.38;4.60;;;;;;;-145.00;100.00;60578.66;5075164;28;20516;-51
2021/12/30 02:41:20;;;;;;;47.47;4.88;;;;;;;-145.00;100.00;60578.66;5074045;28;20060;-52
2021/12/30 02:43:50;;;;;;;35.40;6.68;;;;;;;-145.00;100.00;60578.66;5075665;28;20060;-50
2021/12/30 02:46:22;;;;;;;31.92;3.88;;;;;;;-145.00;100.00;60578.66;5074448;28;20064;-50
2021/12/30 02:48:52;;;;;;;40.97;5.45;;;;;;;-145.00;100.00;60578.66;5074191;28;20546;-51
2021/12/30 02:51:22;;;;;;;30.50;5.28;;;;;;;-145.00;100.00;60578.66;5074762;28;20056;-50
2021/12/30 02:53:52;;;;;;;37.47;5.63;;;;;;;-145.00;100.00;60578.66;5075281;28;20064;-51
2021/12/30 02:56:21;;;;;;;37.40;5.03;;;;;;;-145.00;100.00;60578.66;5074830;28;20056;-51
2021/12/30 02:58:49;;;;;;;38.63;4.88;;;;;;;-145.00;100.00;60578.66;5075140;28;20396;-51
2021/12/30 03:01:20;;;;;;;35.85;5.50;;;;;;;-145.00;100.00;60578.66;5074657;28;20057;-52
2021/12/30 03:03:49;;;;;;;38.58;4.90;;;;;;;-145.00;100.00;60578.66;5074623;28;20056;-50
2021/12/30 03:06:17;;;;;;;37.60;5.28;;;;;;;-145.00;100.00;60578.66;5074935;28;20408;-52
2021/12/30 03:08:48;;;;;;;30.80;4.15;;;;;;;-145.00;100.00;60578.66;5074468;28;20056;-51
2021/12/30 03:11:18;;;;;;;32.78;4.78;;;;;;;-145.00;100.00;60578.66;5073919;28;20060;-50
2021/12/30 03:13:46;;;;;;;29.73;5.90;;;;;;;-145.00;100.00;60578.66;5074167;28;20528;-51
2021/12/30 03:16:21;;;;;;;29.20;4.60;;;;;;;-145.00;100.00;60578.66;5074317;28;20501;-51
2021/12/30 03:18:51;;;;;;;35.10;5.60;;;;;;;-145.00;100.00;60578.66;5073888;28;20416;-49
2021/12/30 03:21:21;;;;;;;29.13;4.15;;;;;;;-145.00;100.00;60578.66;5074353;28;20052;-51
2021/12/30 03:23:49;;;;;;;28.23;4.65;;;;;;;-145.00;100.00;60578.66;5073770;28;20064;-52
2021/12/30 03:26:20;;;;;;;38.20;4.88;;;;;;;-145.00;100.00;60578.66;5074032;28;20500;-51
2021/12/30 03:28:49;;;;;;;32.40;4.32;;;;;;;-145.00;100.00;60578.66;5074800;28;20059;-52
2021/12/30 03:31:19;;;;;;;42.83;5.38;;;;;;;-145.00;100.00;60578.66;5074521;28;20412;-52
2021/12/30 03:33:47;;;;;;;19.67;3.83;;;;;;;-145.00;100.00;60578.66;5073981;28;20071;-49
2021/12/30 03:36:18;;;;;;;31.45;3.63;;;;;;;-145.00;100.00;60578.66;5074169;28;20396;-52
2021/12/30 03:38:49;;;;;;;29.07;3.53;;;;;;;-145.00;100.00;60578.66;5075127;28;20052;-51
2021/12/30 03:41:20;;;;;;;25.35;3.33;;;;;;;-145.00;100.00;60578.66;5073616;28;20294;-51
2021/12/30 03:43:49;;;;;;;25.17;3.72;;;;;;;-145.00;100.00;60578.66;5073957;28;20053;-49
2021/12/30 03:46:17;;;;;;;19.58;2.78;;;;;;;-145.00;100.00;60578.66;5074436;28;20061;-50
2021/12/30 03:48:46;;;;;;;19.35;2.65;;;;;;;-145.00;100.00;60578.66;5074778;28;20423;-50
2021/12/30 03:51:21;;;;;;;22.05;4.40;;;;;;;-145.00;100.00;60578.66;5073758;28;20052;-50
2021/12/30 03:53:52;;;;;;;21.52;2.85;;;;;;;-145.00;100.00;60578.66;5077707;28;20057;-50
2021/12/30 03:56:24;;;;;;;16.00;2.78;;;;;;;-145.00;100.00;60578.66;5078676;28;20052;-50
2021/12/30 03:58:52;;;;;;;19.73;3.22;;;;;;;-145.00;100.00;60578.66;5077735;28;20060;-52
2021/12/30 04:01:21;;;;;;;30.55;4.78;;;;;;;-145.00;100.00;60578.66;5077570;28;20071;-50
2021/12/30 04:03:51;;;;;;;22.30;3.47;;;;;;;-145.00;100.00;60578.66;5077923;28;20053;-50
2021/12/30 04:06:20;;;;;;;22.98;3.10;;;;;;;-145.00;100.00;60578.66;5077440;28;20516;-52
2021/12/30 04:08:48;;;;;;;17.05;4.75;;;;;;;-145.00;100.00;60578.66;5077443;28;20420;-51
2021/12/30 04:11:17;;;;;;;25.27;2.92;;;;;;;-145.00;100.00;60578.66;5077352;28;20516;-50
2021/12/30 04:13:46;;;;;;;25.55;3.47;;;;;;;-145.00;100.00;60578.66;5077324;28;20056;-50
2021/12/30 04:16:14;;;;;;;23.17;3.42;;;;;;;-145.00;100.00;60578.66;5077487;28;20056;-50
2021/12/30 04:18:43;;;;;;;24.90;3.30;;;;;;;-145.00;100.00;60578.66;5077616;28;20060;-52
2021/12/30 04:21:11;;;;;;;24.48;3.50;;;;;;;-145.00;100.00;60578.66;5077457;28;20500;-51
2021/12/30 04:23:39;;;;;;;19.70;3.35;;;;;;;-145.00;100.00;60578.66;5076936;28;20550;-50
2021/12/30 04:26:07;;;;;;;25.13;3.70;;;;;;;-145.00;100.00;60578.66;5077650;28;20058;-51
2021/12/30 04:28:36;;;;;;;23.50;2.80;;;;;;;-145.00;100.00;60578.66;5077362;28;20068;-51
2021/12/30 04:31:05;;;;;;;24.15;4.95;;;;;;;-145.00;100.00;60578.66;5077267;28;20495;-52
2021/12/30 04:33:34;;;;;;;19.20;3.05;;;;;;;-145.00;100.00;60578.66;5077545;28;20405;-51
2021/12/30 04:36:02;;;;;;;15.50;2.90;;;;;;;-145.00;100.00;60578.66;5077794;28;20056;-52
2021/12/30 04:38:32;;;;;;;11.45;2.53;;;;;;;-145.00;100.00;60578.66;5077731;28;20063;-51
2021/12/30 04:41:01;;;;;;;21.35;3.20;;;;;;;-145.00;100.00;60578.66;5077606;28;20401;-52
2021/12/30 04:43:29;;;;;;;15.55;3.50;;;;;;;-145.00;100.00;60578.66;5076555;28;20056;-52
2021/12/30 04:45:58;;;;;;;16.45;3.55;;;;;;;-145.00;100.00;60578.66;5077470;28;20053;-50
2021/12/30 04:48:28;;;;;;;16.80;2.83;;;;;;;-145.00;100.00;60578.66;5077246;28;20079;-50
2021/12/30 04:50:56;;;;;;;14.98;2.58;;;;;;;-145.00;100.00;60578.66;5076954;28;20393;-51
2021/12/30 04:53:25;;;;;;;18.80;3.25;;;;;;;-145.00;100.00;60578.66;5076726;28;20052;-50
2021/12/30 04:55:53;;;;;;;14.98;1.80;;;;;;;-145.00;100.00;60578.66;5076788;28;20056;-50
2021/12/30 04:58:21;;;;;;;21.08;2.50;;;;;;;-145.00;100.00;60578.66;5077047;28;20052;-51
2021/12/30 05:00:50;;;;;;;13.13;2.15;;;;;;;-145.00;100.00;60578.66;5076423;28;20057;-50
2021/12/30 05:03:21;;;;;;;11.65;3.17;;;;;;;-145.00;100.00;60578.66;5075974;28;20056;-52
2021/12/30 05:05:52;;;;;;;14.18;2.65;;;;;;;-145.00;100.00;60578.66;5077031;28;20059;-52
2021/12/30 05:08:22;;;;;;;13.50;1.83;;;;;;;-145.00;100.00;60578.66;5076236;28;20057;-51
2021/12/30 05:10:51;;;;;;;15.50;2.60;;;;;;;-145.00;100.00;60578.66;5076267;28;20518;-51
2021/12/30 05:13:20;;;;;;;13.30;2.20;;;;;;;-145.00;100.00;60578.66;5076823;28;20059;-51
2021/12/30 05:15:48;;;;;;;16.42;2.00;;;;;;;-145.00;100.00;60578.66;5077041;28;20057;-51
2021/12/30 05:18:18;;;;;;;10.52;2.90;;;;;;;-145.00;100.00;60578.66;5075951;28;20411;-50
2021/12/30 05:20:47;;;;;;;12.05;2.45;;;;;;;-145.00;100.00;60578.66;5076687;28;20056;-49
2021/12/30 05:23:17;;;;;;;18.25;2.53;;;;;;;-145.00;100.00;60578.66;5076330;28;20059;-52
2021/12/30 05:25:45;;;;;;;11.23;2.45;;;;;;;-145.00;100.00;60578.66;5076644;28;20057;-51
2021/12/30 05:28:13;;;;;;;16.10;2.70;;;;;;;-145.00;100.00;60578.66;5075957;28;20068;-52
2021/12/30 05:30:41;;;;;;;12.00;2.22;;;;;;;-145.00;100.00;60578.66;5075914;28;20408;-52
2021/12/30 05:33:09;;;;;;;10.02;1.58;;;;;;;-145.00;100.00;60578.66;5076135;28;20432;-51
2021/12/30 05:35:38;;;;;;;11.38;1.88;;;;;;;-145.00;100.00;60578.66;5077017;28;20412;-52
2021/12/30 05:38:06;;;;;;;12.13;2.72;;;;;;;-145.00;100.00;60578.66;5075984;28;20084;-50
2021/12/30 05:40:36;;;;;;;10.68;1.83;;;;;;;-145.00;100.00;60578.66;5075997;28;20534;-52
2021/12/30 05:43:04;;;;;;;10.95;2.28;;;;;;;-145.00;100.00;60578.66;5075914;28;20052;-51
2021/12/30 05:45:33;;;;;;;17.83;2.20;;;;;;;-145.00;100.00;60578.66;5075384;28;20054;-49
2021/12/30 05:48:01;;;;;;;12.50;2.05;;;;;;;-145.00;100.00;60578.66;5076341;28;20067;-52
2021/12/30 05:50:32;;;;;;;16.33;2.05;;;;;;;-145.00;100.00;60578.66;5075815;28;20484;-50
2021/12/30 05:53:00;;;;;;;20.10;2.95;;;;;;;-145.00;100.00;60578.66;5076654;28;20404;-50
2021/12/30 05:55:29;;;;;;;14.90;2.67;;;;;;;-145.00;100.00;60578.66;5075425;28;20056;-52
2021/12/30 05:58:00;;;;;;;13.63;2.17;;;;;;;-145.00;100.00;60578.66;5075253;28;20067;-49
2021/12/30 06:00:29;;;;;;;22.27;4.47;;;;;;;-145.00;100.00;60578.66;5075514;28;20500;-51
2021/12/30 06:02:58;;;;;;;16.30;2.58;;;;;;;-145.00;100.00;60578.66;5074945;28;20062;-51
2021/12/30 06:05:28;;;;;;;12.02;1.92;;;;;;;-145.00;100.00;60578.66;5076076;28;20062;-51
2021/12/30 06:07:56;;;;;;;23.35;2.70;;;;;;;-145.00;100.00;60578.66;5075154;28;20060;-52
2021/12/30 06:10:24;;;;;;;15.73;2.05;;;;;;;-145.00;100.00;60578.66;5075644;28;20052;-50
2021/12/30 06:12:53;;;;;;;22.13;2.45;;;;;;;-145.00;100.00;60578.66;5075908;28;20065;-51
2021/12/30 06:15:22;;;;;;;16.73;2.42;;;;;;;-145.00;100.00;60578.66;5074019;28;20053;-50
2021/12/30 06:17:51;;;;;;;21.20;2.97;;;;;;;-145.00;100.00;60578.66;5075421;28;20086;-50
2021/12/30 06:20:19;;;;;;;12.10;2.10;;;;;;;-145.00;100.00;60578.66;5075071;28;20064;-52
2021/12/30 06:22:48;;;;;;;16.88;3.40;;;;;;;-145.00;100.00;60578.66;5075156;28;20071;-50
2021/12/30 06:25:17;;;;;;;20.60;2.50;;;;;;;-145.00;100.00;60578.66;5075828;28;20056;-51
2021/12/30 06:27:45;;;;;;;23.70;3.50;;;;;;;-145.00;100.00;60578.66;5075039;28;20060;-52
2021/12/30 06:30:14;;;;;;;16.77;2.63;;;;;;;-145.00;100.00;60578.66;5075327;28;20099;-51
2021/12/30 06:32:43;;;;;;;24.33;3.55;;;;;;;-145.00;100.00;60578.66;5074659;28;20512;-51
2021/12/30 06:35:12;;;;;;;12.90;2.00;;;;;;;-145.00;100.00;60578.66;5074647;28;20416;-50
2021/12/30 06:37:41;;;;;;;22.02;2.83;;;;;;;-145.00;100.00;60578.66;5074525;28;20530;-49
2021/12/30 06:40:12;;;;;;;18.30;2.80;;;;;;;-145.00;100.00;60578.66;5074843;28;20052;-51
2021/12/30 06:42:41;;;;;;;18.52;2.05;;;;;;;-145.00;100.00;60578.66;5075497;28;20063;-52
2021/12/30 06:45:09;;;;;;;16.65;2.20;;;;;;;-145.00;100.00;60578.66;5074276;28;20397;-50
2021/12/30 06:47:44;;;;;;;17.15;2.88;;;;;;;-145.00;100.00;60578.66;5075172;28;20060;-50
2021/12/30 06:50:13;;;;;;;18.55;2.38;;;;;;;-145.00;100.00;60578.66;5074139;28;20591;-50
2021/12/30 06:52:42;;;;;;;22.98;3.15;;;;;;;-145.00;100.00;60578.66;5074980;28;20082;-52
2021/12/30 06:55:11;;;;;;;21.17;2.67;;;;;;;-145.00;100.00;60578.66;5074140;28;20530;-49
2021/12/30 06:57:40;;;;;;;10.82;2.38;;;;;;;-145.00;100.00;60578.66;5074742;28;20064;-51
2021/12/30 07:00:10;;;;;;;20.40;2.65;;;;;;;-145.00;100.00;60578.66;5074580;28;20059;-51
2021/12/30 07:02:39;;;;;;;20.50;2.88;;;;;;;-145.00;100.00;60578.66;5074502;28;20531;-52
2021/12/30 07:05:09;;;;;;;19.40;3.25;;;;;;;-145.00;100.00;60578.66;5074323;28;20052;-50
2021/12/30 07:07:38;;;;;;;19.98;2.90;;;;;;;-145.00;100.00;60578.66;5074519;28;20071;-51
2021/12/30 07:10:07;;;;;;;31.23;4.10;;;;;;;-145.00;100.00;60578.66;5074686;28;20502;-51
2021/12/30 07:12:36;;;;;;;20.23;2.92;;;;;;;-145.00;100.00;60578.66;5074405;28;20056;-52
2021/12/30 07:15:05;;;;;;;15.70;3.28;;;;;;;-145.00;100.00;60578.66;5074706;28;20424;-51
2021/12/30 07:17:34;;;;;;;20.20;2.67;;;;;;;-145.00;100.00;60578.66;5074573;28;20067;-52
2021/12/30 07:20:03;;;;;;;16.52;2.72;;;;;;;-145.00;100.00;60578.66;5075187;28;20065;-50
2021/12/30 07:22:32;;;;;;;21.23;4.65;;;;;;;-145.00;100.00;60578.66;5074626;28;20057;-52
2021/12/30 07:25:16;;;;;;;14.35;2.67;;;;;;;-145.00;100.00;60578.66;5074678;28;20058;-51
2021/12/30 07:27:47;;;;;;;17.30;3.15;;;;;;;-145.00;100.00;60578.66;5081192;28;20131;-52
2021/12/30 07:30:15;;;;;;;18.45;2.88;;;;;;;-145.00;100.00;60578.66;5081422;28;20411;-52
2021/12/30 07:32:43;;;;;;;16.23;2.42;;;;;;;-145.00;100.00;60578.66;5080962;28;20389;-52
2021/12/30 07:35:11;;;;;;;20.80;3.67;;;;;;;-145.00;100.00;60578.66;5080648;28;20064;-51
2021/12/30 07:37:41;;;;;;;20.67;2.92;;;;;;;-145.00;100.00;60578.66;5080610;28;20500;-51
2021/12/30 07:40:10;;;;;;;18.40;3.25;;;;;;;-145.00;100.00;60578.66;5080564;28;20056;-50
2021/12/30 07:42:38;;;;;;;18.70;3.45;;;;;;;-145.00;100.00;60578.66;5080863;28;20059;-51
2021/12/30 07:45:09;;;;;;;26.65;3.80;;;;;;;-145.00;100.00;60578.66;5080252;28;20052;-51
2021/12/30 07:47:37;;;;;;;32.78;4.25;;;;;;;-145.00;100.00;60578.66;5081703;28;20095;-50
2021/12/30 07:50:07;;;;;;;19.92;2.92;;;;;;;-145.00;100.00;60578.66;5080450;28;20066;-51
2021/12/30 07:52:36;;;;;;;24.48;4.32;;;;;;;-145.00;100.00;60578.66;5080427;28;20060;-52
2021/12/30 07:55:07;;;;;;;19.08;2.80;;;;;;;-145.00;100.00;60578.66;5080212;28;20543;-52
2021/12/30 07:57:35;;;;;;;19.27;4.15;;;;;;;-145.00;100.00;60578.66;5081039;28;20060;-50
2021/12/30 08:00:06;;;;;;;23.90;3.17;;;;;;;-145.00;100.00;60578.66;5080818;28;20056;-51
2021/12/30 08:02:34;;;;;;;23.42;3.97;;;;;;;-145.00;100.00;60578.66;5081572;28;20052;-52
2021/12/30 08:05:02;;;;;;;19.33;3.85;;;;;;;-145.00;100.00;60578.66;5080401;28;20056;-51
2021/12/30 08:07:30;;;;;;;15.13;2.53;;;;;;;-145.00;100.00;60578.66;5080603;28;20057;-52
2021/12/30 08:09:59;;;;;;;19.95;3.63;;;;;;;-145.00;100.00;60578.66;5080599;28;20060;-52
2021/12/30 08:12:28;;;;;;;21.25;3.63;;;;;;;-145.00;100.00;60578.66;5080541;28;20515;-52
2021/12/30 08:14:56;;;;;;;24.10;2.90;;;;;;;-145.00;100.00;60578.66;5080315;28;20056;-51
2021/12/30 08:17:25;;;;;;;22.08;2.70;;;;;;;-145.00;100.00;60578.66;5080574;28;20053;-50
2021/12/30 08:19:53;;;;;;;26.42;3.60;;;;;;;-145.00;100.00;60578.66;5081179;28;20114;-52
2021/12/30 08:22:21;;;;;;;19.92;3.42;;;;;;;-145.00;100.00;60578.66;5080934;28;20056;-52
2021/12/30 08:24:49;;;;;;;22.52;2.55;;;;;;;-145.00;100.00;60578.66;5080803;28;20408;-52
2021/12/30 08:27:18;;;;;;;14.20;2.85;;;;;;;-145.00;100.00;60578.66;5080689;28;20412;-49
2021/12/30 08:29:47;;;;;;;18.45;3.53;;;;;;;-145.00;100.00;60578.66;5081238;28;20118;-52
2021/12/30 08:32:16;;;;;;;19.63;2.70;;;;;;;-145.00;100.00;60578.66;5080359;28;20534;-51
2021/12/30 08:34:46;;;;;;;16.02;2.75;;;;;;;-145.00;100.00;60578.66;5080767;28;20056;-50
2021/12/30 08:37:16;;;;;;;18.77;3.67;;;;;;;-145.00;100.00;60578.66;5079337;28;20499;-49
2021/12/30 08:39:45;;;;;;;21.98;3.13;;;;;;;-145.00;100.00;60578.66;5076658;28;20048;-50
2021/12/30 08:42:21;;;;;;;18.10;2.45;;;;;;;-145.00;100.00;60578.66;5077064;28;20052;-52
2021/12/30 08:44:51;;;;;;;16.85;2.58;;;;;;;-145.00;100.00;60578.66;5076815;28;20056;-52
2021/12/30 08:47:20;;;;;;;25.95;3.15;;;;;;;-145.00;100.00;60578.66;5077176;28;20083;-51
2021/12/30 08:49:50;;;;;;;23.15;3.55;;;;;;;-145.00;100.00;60578.66;5077511;28;20493;-52
2021/12/30 08:52:19;;;;;;;18.35;2.67;;;;;;;-145.00;100.00;60578.66;5076972;28;20079;-49
2021/12/30 08:54:48;;;;;;;20.50;2.85;;;;;;;-145.00;100.00;60578.66;5076615;28;20057;-52
2021/12/30 08:57:17;;;;;;;19.48;2.47;;;;;;;-145.00;100.00;60578.66;5076793;28;20052;-51
2021/12/30 08:59:46;;;;;;;14.23;2.28;;;;;;;-145.00;100.00;60578.66;5076381;28;20071;-50
2021/12/30 09:02:16;;;;;;;14.23;2.47;;;;;;;-145.00;100.00;60578.66;5076758;28;20053;-49
2021/12/30 09:04:46;;;;;;;15.65;2.60;;;;;;;-145.00;100.00;60578.66;5077370;28;20052;-50
2021/12/30 09:07:16;;;;;;;21.08;3.22;;;;;;;-145.00;100.00;60578.66;5076393;28;20056;-51
2021/12/30 09:09:44;;;;;;;20.23;2.70;;;;;;;-145.00;100.00;60578.66;5076630;28;20056;-52
2021/12/30 09:12:13;;;;;;;12.30;2.35;;;;;;;-145.00;100.00;60578.66;5077126;28;20059;-52
2021/12/30 09:14:41;;;;;;;17.63;2.08;;;;;;;-145.00;100.00;60578.66;5076016;28;20055;-52
2021/12/30 09:17:09;;;;;;;14.80;2.38;;;;;;;-145.00;100.00;60578.66;5076217;28;20060;-50
2021/12/30 09:19:39;;;;;;;15.63;1.98;;;;;;;-145.00;100.00;60578.66;5076049;28;20071;-52
2021/12/30 09:22:08;;;;;;;19.73;2.50;;;;;;;-145.00;100.00;60578.66;5076501;28;20049;-52
2021/12/30 09:24:36;;;;;;;13.50;2.78;;;;;;;-145.00;100.00;60578.66;5076121;28;20551;-52
2021/12/30 09:27:09;;;;;;;15.73;2.75;;;;;;;-145.00;100.00;60578.66;5076015;28;20052;-52
2021/12/30 09:29:37;;;;;;;24.98;3.00;;;;;;;-145.00;100.00;60578.66;5077009;28;20056;-52
2021/12/30 09:32:05;;;;;;;17.95;2.40;;;;;;;-145.00;100.00;60578.66;5076179;28;20052;-52
2021/12/30 09:34:35;;;;;;;29.17;3.15;;;;;;;-145.00;100.00;60578.66;5075915;28;20068;-51
2021/12/30 09:37:08;;;;;;;17.45;2.88;;;;;;;-145.00;100.00;60578.66;5075745;28;20519;-52
2021/12/30 09:39:37;;;;;;;16.05;2.25;;;;;;;-145.00;100.00;60578.66;5076832;28;20071;-51
2021/12/30 09:42:06;;;;;;;13.50;2.67;;;;;;;-145.00;100.00;60578.66;5076202;28;20135;-50
2021/12/30 09:44:34;;;;;;;17.90;2.88;;;;;;;-145.00;100.00;60578.66;5075706;28;20052;-50
2021/12/30 09:47:03;;;;;;;14.85;2.88;;;;;;;-145.00;100.00;60578.66;5076189;28;20052;-49
2021/12/30 09:49:34;;;;;;;;;;;;;;;-145.00;100.00;60578.66;5075719;28;20078;-52
2021/12/30 09:52:04;;;;;;;17.00;3.28;;;;;;;-145.00;100.00;60578.66;5075521;28;19928;-51
2021/12/30 09:54:32;;;;;;;14.95;3.15;;;;;;;-145.00;100.00;60578.66;5075201;28;20538;-52
2021/12/30 09:57:01;;;;;;;14.05;2.40;;;;;;;-145.00;100.00;60578.66;5075911;28;20064;-49
2021/12/30 09:59:31;;;;;;;10.07;1.67;;;;;;;-145.00;100.00;60578.66;5075240;28;20531;-51
2021/12/30 10:01:59;;;;;;;15.48;2.03;;;;;;;-145.00;100.00;60578.66;5075025;28;20069;-52
2021/12/30 10:04:31;;;;;;;18.95;2.78;;;;;;;-145.00;100.00;60578.66;5074937;28;20106;-52
2021/12/30 10:07:00;;;;;;;14.77;2.73;;;;;;;-145.00;100.00;60578.66;5074970;28;20063;-49
2021/12/30 10:09:50;;;;;;;14.93;2.10;;;;;;;-145.00;100.00;60578.66;5075098;28;20072;-51
2021/12/30 10:12:33;;;;;;;11.02;1.75;;;;;;;-145.00;100.00;60578.66;5074735;28;20060;-50
2021/12/30 10:15:02;;;;;;;17.27;2.33;;;;;;;-145.00;100.00;60578.66;5075339;28;20101;-51
2021/12/30 10:17:31;;;;;;;13.18;2.15;;;;;;;-145.00;100.00;60578.66;5074964;28;20500;-51
2021/12/30 10:20:18;;;;;;;12.13;2.90;;;;;;;-145.00;100.00;60578.66;5076266;28;20496;-51
2021/12/30 10:22:47;;;;;;;11.07;1.85;;;;;;;-145.00;100.00;60578.66;5075791;28;20057;-52
2021/12/30 10:25:33;;;;;;;12.02;1.63;;;;;;;-145.00;100.00;60578.66;5076030;28;20057;-50
2021/12/30 10:28:19;;;;;;;15.20;2.35;;;;;;;-145.00;100.00;60578.66;5074437;28;20057;-50
2021/12/30 10:30:48;;;;;;;15.77;2.15;;;;;;;-145.00;100.00;60578.66;5074727;28;20064;-52
2021/12/30 10:33:19;;;;;;;9.10;2.28;;;;;;;-145.00;100.00;60578.66;5074673;28;20052;-51
2021/12/30 10:35:47;;;;;;;9.30;2.60;;;;;;;-145.00;100.00;60578.66;5074390;28;20060;-51
2021/12/30 10:38:16;;;;;;;10.18;1.65;;;;;;;-145.00;100.00;60578.66;5074584;28;20492;-49
2021/12/30 10:40:48;;;;;;;14.10;2.20;;;;;;;-145.00;100.00;60578.66;5074466;28;20056;-52
2021/12/30 10:43:25;;;;;;;7.25;1.60;;;;;;;-145.00;100.00;60578.66;5074291;28;20049;-50
2021/12/30 10:46:11;;;;;;;10.15;1.75;;;;;;;-145.00;100.00;60578.66;5074523;28;20063;-52
2021/12/30 10:48:52;;;;;;;11.57;3.15;;;;;;;-145.00;100.00;60578.66;5074194;28;20136;-52
2021/12/30 10:51:21;;;;;;;7.72;2.10;;;;;;;-145.00;100.00;60578.66;5074968;28;20056;-51
2021/12/30 10:53:50;;;;;;;8.63;2.63;;;;;;;-145.00;100.00;60578.66;5074157;28;20056;-49
2021/12/30 10:56:26;;;;;;;12.48;2.20;;;;;;;-145.00;100.00;60578.66;5074325;28;20056;-50
2021/12/30 10:59:06;;;;;;;13.15;1.70;;;;;;;-145.00;100.00;60578.66;5074955;28;20056;-52
2021/12/30 11:01:38;;;;;;;7.20;1.42;;;;;;;-145.00;100.00;60578.66;5074443;28;20412;-52
2021/12/30 11:04:07;;;;;;;;;;;;;;;-145.00;100.00;60578.66;5074442;28;20092;-51
2021/12/30 11:06:35;;;;;;;8.30;1.40;;;;;;;-145.00;100.00;60578.66;5074455;28;19927;-50
2021/12/30 11:09:16;;;;;;;6.95;2.35;;;;;;;-145.00;100.00;60578.66;5074356;28;20056;-52
2021/12/30 11:11:50;;;;;;;7.85;2.35;;;;;;;-145.00;100.00;60578.66;5074254;28;20063;-52
2021/12/30 11:14:20;;;;;;;6.20;1.58;;;;;;;-145.00;100.00;60578.66;5073923;28;20060;-51